createdAt,value
2022-08-24T00:00:45.083Z,79.43
2022-08-24T00:01:45.048Z,80.13
2022-08-24T00:02:45.197Z,79.83
2022-08-24T00:03:45.022Z,80.18
2022-08-24T00:04:46.739Z,79.73
2022-08-24T00:05:45.021Z,80.33
2022-08-24T00:06:44.990Z,80.74
2022-08-24T00:07:44.976Z,81.24
2022-08-24T00:08:44.969Z,81.08
2022-08-24T00:09:44.975Z,81.85
2022-08-24T00:10:45.965Z,81.24
2022-08-24T00:11:44.931Z,81.38
2022-08-24T00:12:44.921Z,81.18
2022-08-24T00:13:44.914Z,80.74
2022-08-24T00:14:44.920Z,80.98
2022-08-24T00:15:44.888Z,80.38
2022-08-24T00:16:44.975Z,80.98
2022-08-24T00:17:44.865Z,81.18
2022-08-24T00:18:44.876Z,81.73
2022-08-24T00:19:44.863Z,81.42
2022-08-24T00:20:45.376Z,81.52
2022-08-24T00:21:44.841Z,81.52
2022-08-24T00:22:44.810Z,81.32
2022-08-24T00:23:44.818Z,81.32
2022-08-24T00:24:44.786Z,81.22
2022-08-24T00:25:44.773Z,81.52
2022-08-24T00:26:44.763Z,81.73
2022-08-24T00:27:44.750Z,81.73
2022-08-24T00:28:44.835Z,82.33
2022-08-24T00:29:44.728Z,82.64
2022-08-24T00:30:44.719Z,83.14
2022-08-24T00:31:44.770Z,82.43
2022-08-24T00:32:44.719Z,82.87
2022-08-24T00:33:44.703Z,82.57
2022-08-24T00:34:51.898Z,82.87
2022-08-24T00:35:45.660Z,82.78
2022-08-24T00:36:44.651Z,82.67
2022-08-24T00:37:44.638Z,82.98
2022-08-24T00:38:44.651Z,83.07
2022-08-24T00:39:44.706Z,82.78
2022-08-24T00:40:44.888Z,83.38
2022-08-24T00:41:44.597Z,83.07
2022-08-24T00:42:44.590Z,82.98
2022-08-24T00:43:44.573Z,83.18
2022-08-24T00:44:44.875Z,84.09
2022-08-24T00:45:44.631Z,83.98
2022-08-24T00:46:44.538Z,83.62
2022-08-24T00:47:47.763Z,84.23
2022-08-24T00:48:44.517Z,83.82
2022-08-24T00:49:44.503Z,83.62
2022-08-24T00:50:44.495Z,83.82
2022-08-24T00:51:44.502Z,83.72
2022-08-24T00:52:44.470Z,84.23
2022-08-24T00:53:44.457Z,83.52
2022-08-24T00:54:46.474Z,83.82
2022-08-24T00:55:44.434Z,83.52
2022-08-24T00:56:44.446Z,83.42
2022-08-24T00:57:44.413Z,83.52
2022-08-24T00:58:44.425Z,83.52
2022-08-24T00:59:44.390Z,83.92
2022-08-24T01:00:46.335Z,83.76
2022-08-24T01:01:44.460Z,84.33
2022-08-24T01:02:44.401Z,85.17
2022-08-24T01:03:44.346Z,85.17
2022-08-24T01:04:44.356Z,86.39
2022-08-24T01:05:44.344Z,85.58
2022-08-24T01:06:44.316Z,85.28
2022-08-24T01:07:44.300Z,85.17
2022-08-24T01:08:44.292Z,85.58
2022-08-24T01:09:44.299Z,85.28
2022-08-24T01:10:44.268Z,85.48
2022-08-24T01:11:44.280Z,85.58
2022-08-24T01:12:59.551Z,84.97
2022-08-24T01:13:45.230Z,85.08
2022-08-24T01:14:44.224Z,85.78
2022-08-24T01:15:44.210Z,85.78
2022-08-24T01:16:44.348Z,86.29
2022-08-24T01:17:44.209Z,86.33
2022-08-24T01:18:44.180Z,86.49
2022-08-24T01:19:44.171Z,86.69
2022-08-24T01:20:44.212Z,86.22
2022-08-24T01:21:44.188Z,86.33
2022-08-24T01:22:44.212Z,86.53
2022-08-24T01:23:44.148Z,86.63
2022-08-24T01:24:44.112Z,86.73
2022-08-24T01:25:44.097Z,86.33
2022-08-24T01:26:44.090Z,86.63
2022-08-24T01:27:44.096Z,86.53
2022-08-24T01:28:44.170Z,86.53
2022-08-24T01:29:44.051Z,86.83
2022-08-24T01:30:44.094Z,86.69
2022-08-24T01:31:44.124Z,86.69
2022-08-24T01:32:44.041Z,87.10
2022-08-24T01:33:44.005Z,87.19
2022-08-24T01:34:43.997Z,87.30
2022-08-24T01:35:43.985Z,86.69
2022-08-24T01:36:43.993Z,86.69
2022-08-24T01:37:43.959Z,85.68
2022-08-24T01:38:43.951Z,84.47
2022-08-24T01:39:43.987Z,84.77
2022-08-24T01:40:43.929Z,85.48
2022-08-24T01:41:43.938Z,85.78
2022-08-24T01:42:43.906Z,85.78
2022-08-24T01:43:43.892Z,85.28
2022-08-24T01:44:43.882Z,85.08
2022-08-24T01:45:43.870Z,85.38
2022-08-24T01:46:43.942Z,85.08
2022-08-24T01:47:43.874Z,84.77
2022-08-24T01:48:43.837Z,84.97
2022-08-24T01:49:43.825Z,85.08
2022-08-24T01:50:43.817Z,85.68
2022-08-24T01:51:43.804Z,86.29
2022-08-24T01:53:04.393Z,85.68
2022-08-24T01:53:44.807Z,85.78
2022-08-24T01:54:43.815Z,86.33
2022-08-24T01:55:43.759Z,86.53
2022-08-24T01:56:43.752Z,86.43
2022-08-24T01:57:43.734Z,86.43
2022-08-24T01:58:43.749Z,86.63
2022-08-24T01:59:43.713Z,86.47
2022-08-24T02:00:43.723Z,86.37
2022-08-24T02:01:43.785Z,86.67
2022-08-24T02:02:43.729Z,86.87
2022-08-24T02:03:43.695Z,86.87
2022-08-24T02:04:44.304Z,86.77
2022-08-24T02:05:43.643Z,86.57
2022-08-24T02:06:43.636Z,86.67
2022-08-24T02:07:43.645Z,86.67
2022-08-24T02:08:43.613Z,86.77
2022-08-24T02:09:43.600Z,86.87
2022-08-24T02:10:48.683Z,86.87
2022-08-24T02:11:44.577Z,86.77
2022-08-24T02:12:43.588Z,87.38
2022-08-24T02:13:43.554Z,87.38
2022-08-24T02:14:43.545Z,87.38
2022-08-24T02:15:43.610Z,87.48
2022-08-24T02:16:43.526Z,86.98
2022-08-24T02:17:43.509Z,87.08
2022-08-24T02:18:43.614Z,87.68
2022-08-24T02:19:43.487Z,87.48
2022-08-24T02:20:43.482Z,87.68
2022-08-24T02:21:43.463Z,88.09
2022-08-24T02:22:43.453Z,88.02
2022-08-24T02:23:43.462Z,88.43
2022-08-24T02:24:43.435Z,87.93
2022-08-24T02:25:43.418Z,88.39
2022-08-24T02:26:43.410Z,88.43
2022-08-24T02:27:43.397Z,88.43
2022-08-24T02:28:43.407Z,88.74
2022-08-24T02:29:43.392Z,88.84
2022-08-24T02:30:43.495Z,88.84
2022-08-24T02:31:43.371Z,89.24
2022-08-24T02:32:43.341Z,89.14
2022-08-24T02:33:43.336Z,89.14
2022-08-24T02:34:43.321Z,89.14
2022-08-24T02:35:43.307Z,88.84
2022-08-24T02:36:43.317Z,89.08
2022-08-24T02:37:43.900Z,89.89
2022-08-24T02:38:43.273Z,88.98
2022-08-24T02:39:43.336Z,89.48
2022-08-24T02:40:43.274Z,89.39
2022-08-24T02:41:43.242Z,89.99
2022-08-24T02:42:43.229Z,89.48
2022-08-24T02:43:43.224Z,89.99
2022-08-24T02:44:43.608Z,89.99
2022-08-24T02:45:45.234Z,89.69
2022-08-24T02:46:43.261Z,90.30
2022-08-24T02:47:43.171Z,90.80
2022-08-24T02:48:43.164Z,90.34
2022-08-24T02:49:43.171Z,89.83
2022-08-24T02:50:43.138Z,90.64
2022-08-24T02:51:44.214Z,90.54
2022-08-24T02:52:43.115Z,90.64
2022-08-24T02:53:43.104Z,90.44
2022-08-24T02:54:43.099Z,90.54
2022-08-24T02:55:43.111Z,91.25
2022-08-24T02:56:43.071Z,91.35
2022-08-24T02:57:43.087Z,90.54
2022-08-24T02:58:43.048Z,90.44
2022-08-24T02:59:43.055Z,91.35
2022-08-24T03:00:43.046Z,91.25
2022-08-24T03:01:43.083Z,91.05
2022-08-24T03:02:43.030Z,90.14
2022-08-24T03:03:42.989Z,91.05
2022-08-24T03:04:43.008Z,90.44
2022-08-24T03:05:43.966Z,90.84
2022-08-24T03:06:42.979Z,91.50
2022-08-24T03:07:42.945Z,91.25
2022-08-24T03:08:42.935Z,90.75
2022-08-24T03:09:44.137Z,90.44
2022-08-24T03:10:42.914Z,90.84
2022-08-24T03:11:45.300Z,90.44
2022-08-24T03:12:42.897Z,90.64
2022-08-24T03:13:42.878Z,90.95
2022-08-24T03:14:42.894Z,91.25
2022-08-24T03:15:42.888Z,90.95
2022-08-24T03:16:42.849Z,90.95
2022-08-24T03:17:43.195Z,91.46
2022-08-24T03:18:42.846Z,90.75
2022-08-24T03:19:42.877Z,90.64
2022-08-24T03:20:42.799Z,91.15
2022-08-24T03:21:42.787Z,91.25
2022-08-24T03:22:42.776Z,91.35
2022-08-24T03:23:42.766Z,91.35
2022-08-24T03:24:42.772Z,91.46
2022-08-24T03:25:42.741Z,91.70
2022-08-24T03:26:44.271Z,91.50
2022-08-24T03:27:42.720Z,91.19
2022-08-24T03:28:44.470Z,91.30
2022-08-24T03:29:42.729Z,90.99
2022-08-24T03:30:42.745Z,91.39
2022-08-24T03:31:42.676Z,91.50
2022-08-24T03:32:42.693Z,91.60
2022-08-24T03:33:42.653Z,91.90
2022-08-24T03:34:42.665Z,91.85
2022-08-24T03:35:42.631Z,91.85
2022-08-24T03:36:42.616Z,92.14
2022-08-24T03:37:42.609Z,92.21
2022-08-24T03:38:42.593Z,92.25
2022-08-24T03:39:42.694Z,92.65
2022-08-24T03:40:42.571Z,92.45
2022-08-24T03:41:42.561Z,92.35
2022-08-24T03:42:42.568Z,92.65
2022-08-24T03:43:42.537Z,92.76
2022-08-24T03:44:42.524Z,92.82
2022-08-24T03:45:42.594Z,92.45
2022-08-24T03:46:42.501Z,92.71
2022-08-24T03:47:42.512Z,92.76
2022-08-24T03:48:42.478Z,92.65
2022-08-24T03:49:42.471Z,92.76
2022-08-24T03:50:42.457Z,92.55
2022-08-24T03:51:42.448Z,92.76
2022-08-24T03:52:42.454Z,92.55
2022-08-24T03:53:42.958Z,92.65
2022-08-24T03:54:42.438Z,92.86
2022-08-24T03:55:42.403Z,92.45
2022-08-24T03:56:42.387Z,92.65
2022-08-24T03:57:42.571Z,93.26
2022-08-24T03:58:42.365Z,93.22
2022-08-24T03:59:46.708Z,93.26
2022-08-24T04:00:43.341Z,93.06
2022-08-24T04:01:42.417Z,93.16
2022-08-24T04:02:42.387Z,93.57
2022-08-24T04:03:42.309Z,93.46
2022-08-24T04:04:42.296Z,93.67
2022-08-24T04:05:42.287Z,93.16
2022-08-24T04:06:42.420Z,93.46
2022-08-24T04:07:42.303Z,93.67
2022-08-24T04:08:42.252Z,94.78
2022-08-24T04:09:42.243Z,94.18
2022-08-24T04:10:42.234Z,93.87
2022-08-24T04:11:42.241Z,93.77
2022-08-24T04:12:42.206Z,93.57
2022-08-24T04:13:42.216Z,93.67
2022-08-24T04:14:42.182Z,93.77
2022-08-24T04:15:42.194Z,93.67
2022-08-24T04:16:42.631Z,94.18
2022-08-24T04:17:42.187Z,94.18
2022-08-24T04:18:42.138Z,94.78
2022-08-24T04:19:42.156Z,94.68
2022-08-24T04:20:42.138Z,94.78
2022-08-24T04:21:42.105Z,94.78
2022-08-24T04:22:42.092Z,93.97
2022-08-24T04:23:47.586Z,94.68
2022-08-24T04:24:43.075Z,94.78
2022-08-24T04:25:42.081Z,94.58
2022-08-24T04:26:45.544Z,94.48
2022-08-24T04:27:42.091Z,94.68
2022-08-24T04:28:42.047Z,94.78
2022-08-24T04:29:42.018Z,94.78
2022-08-24T04:30:42.025Z,94.78
2022-08-24T04:31:42.058Z,93.97
2022-08-24T04:32:41.979Z,93.87
2022-08-24T04:33:41.973Z,94.78
2022-08-24T04:34:41.958Z,93.61
2022-08-24T04:35:41.951Z,93.87
2022-08-24T04:36:41.956Z,93.97
2022-08-24T04:37:41.924Z,94.22
2022-08-24T04:38:41.912Z,93.67
2022-08-24T04:39:42.108Z,93.67
2022-08-24T04:40:41.888Z,93.77
2022-08-24T04:41:41.901Z,93.97
2022-08-24T04:42:41.867Z,93.77
2022-08-24T04:43:41.873Z,93.97
2022-08-24T04:44:41.859Z,93.87
2022-08-24T04:45:41.950Z,94.07
2022-08-24T04:46:41.820Z,94.89
2022-08-24T04:47:41.807Z,94.68
2022-08-24T04:48:41.795Z,94.68
2022-08-24T04:49:41.789Z,94.78
2022-08-24T04:50:41.790Z,94.58
2022-08-24T04:51:41.793Z,94.68
2022-08-24T04:52:41.754Z,93.77
2022-08-24T04:53:41.743Z,93.57
2022-08-24T04:54:41.750Z,93.46
2022-08-24T04:55:41.721Z,93.06
2022-08-24T04:56:41.715Z,93.57
2022-08-24T04:57:41.719Z,93.57
2022-08-24T04:58:41.976Z,93.16
2022-08-24T04:59:41.677Z,93.06
2022-08-24T05:00:41.714Z,93.02
2022-08-24T05:01:41.675Z,93.16
2022-08-24T05:02:44.891Z,93.26
2022-08-24T05:03:41.630Z,93.52
2022-08-24T05:04:41.616Z,92.41
2022-08-24T05:05:41.606Z,92.61
2022-08-24T05:06:41.607Z,92.61
2022-08-24T05:07:41.585Z,92.82
2022-08-24T05:08:41.593Z,92.91
2022-08-24T05:09:41.584Z,92.47
2022-08-24T05:10:41.547Z,92.26
2022-08-24T05:11:41.558Z,92.61
2022-08-24T05:12:42.524Z,92.67
2022-08-24T05:13:41.523Z,92.47
2022-08-24T05:14:41.526Z,92.36
2022-08-24T05:15:41.494Z,92.77
2022-08-24T05:16:52.431Z,92.57
2022-08-24T05:17:42.471Z,92.47
2022-08-24T05:18:42.460Z,92.57
2022-08-24T05:19:41.466Z,92.16
2022-08-24T05:20:41.433Z,91.86
2022-08-24T05:21:41.428Z,92.06
2022-08-24T05:22:41.411Z,91.96
2022-08-24T05:23:43.376Z,91.86
2022-08-24T05:24:41.409Z,92.12
2022-08-24T05:25:41.378Z,91.86
2022-08-24T05:26:41.368Z,92.12
2022-08-24T05:27:41.361Z,91.86
2022-08-24T05:28:41.367Z,91.82
2022-08-24T05:29:41.334Z,91.82
2022-08-24T05:30:42.843Z,91.82
2022-08-24T05:31:41.428Z,91.82
2022-08-24T05:32:41.298Z,91.61
2022-08-24T05:33:41.308Z,91.41
2022-08-24T05:34:41.296Z,91.41
2022-08-24T05:35:43.880Z,91.31
2022-08-24T05:36:41.260Z,91.27
2022-08-24T05:37:41.263Z,91.31
2022-08-24T05:38:41.230Z,91.16
2022-08-24T05:39:41.538Z,91.27
2022-08-24T05:40:41.221Z,91.47
2022-08-24T05:41:43.978Z,91.37
2022-08-24T05:42:41.186Z,91.67
2022-08-24T05:43:41.177Z,91.37
2022-08-24T05:44:41.164Z,91.22
2022-08-24T05:45:41.157Z,91.06
2022-08-24T05:46:41.193Z,91.42
2022-08-24T05:47:41.155Z,90.52
2022-08-24T05:48:41.118Z,90.82
2022-08-24T05:49:41.833Z,91.12
2022-08-24T05:50:41.096Z,90.31
2022-08-24T05:51:41.091Z,90.11
2022-08-24T05:52:41.099Z,89.91
2022-08-24T05:53:41.066Z,90.31
2022-08-24T05:54:41.071Z,90.58
2022-08-24T05:55:41.060Z,90.88
2022-08-24T05:56:41.031Z,90.12
2022-08-24T05:57:41.018Z,90.94
2022-08-24T05:58:41.006Z,89.88
2022-08-24T05:59:41.068Z,88.59
2022-08-24T06:00:41.021Z,88.04
2022-08-24T06:01:44.960Z,87.29
2022-08-24T06:02:41.047Z,86.55
2022-08-24T06:03:40.951Z,85.74
2022-08-24T06:04:40.948Z,84.80
2022-08-24T06:05:40.951Z,83.59
2022-08-24T06:06:40.936Z,82.74
2022-08-24T06:07:40.907Z,82.54
2022-08-24T06:08:41.810Z,82.04
2022-08-24T06:09:40.886Z,81.23
2022-08-24T06:10:40.956Z,80.58
2022-08-24T06:11:40.862Z,81.33
2022-08-24T06:12:40.852Z,81.43
2022-08-24T06:13:40.841Z,81.29
2022-08-24T06:14:40.849Z,81.03
2022-08-24T06:15:40.819Z,80.69
2022-08-24T06:16:40.821Z,80.49
2022-08-24T06:17:40.913Z,79.99
2022-08-24T06:18:40.801Z,78.98
2022-08-24T06:19:40.791Z,79.68
2022-08-24T06:20:40.765Z,79.58
2022-08-24T06:21:40.749Z,79.38
2022-08-24T06:22:40.758Z,79.44
2022-08-24T06:23:40.726Z,79.68
2022-08-24T06:24:40.713Z,79.44
2022-08-24T06:25:40.726Z,80.08
2022-08-24T06:26:40.695Z,80.65
2022-08-24T06:27:40.680Z,80.05
2022-08-24T06:28:40.668Z,79.64
2022-08-24T06:29:40.658Z,78.94
2022-08-24T06:30:40.645Z,77.83
2022-08-24T06:31:40.696Z,77.53
2022-08-24T06:32:40.623Z,77.23
2022-08-24T06:33:40.617Z,77.53
2022-08-24T06:34:40.600Z,77.63
2022-08-24T06:35:43.609Z,77.94
2022-08-24T06:36:41.596Z,78.44
2022-08-24T06:37:40.566Z,78.80
2022-08-24T06:38:40.555Z,79.71
2022-08-24T06:39:40.544Z,80.01
2022-08-24T06:40:40.531Z,79.91
2022-08-24T06:41:40.542Z,79.50
2022-08-24T06:42:40.509Z,78.50
2022-08-24T06:43:40.499Z,78.40
2022-08-24T06:44:40.487Z,79.50
2022-08-24T06:45:40.476Z,80.01
2022-08-24T06:46:40.577Z,79.41
2022-08-24T06:47:40.479Z,79.47
2022-08-24T06:48:40.442Z,79.71
2022-08-24T06:49:40.432Z,80.07
2022-08-24T06:50:40.420Z,79.67
2022-08-24T06:51:40.434Z,79.37
2022-08-24T06:52:40.402Z,78.97
2022-08-24T06:53:40.386Z,78.22
2022-08-24T06:54:40.374Z,78.53
2022-08-24T06:55:40.364Z,78.73
2022-08-24T06:56:40.372Z,78.33
2022-08-24T06:57:40.342Z,78.42
2022-08-24T06:58:40.356Z,77.52
2022-08-24T06:59:40.322Z,78.03
2022-08-24T07:00:40.307Z,77.92
2022-08-24T07:01:40.387Z,77.79
2022-08-24T07:02:40.344Z,77.48
2022-08-24T07:03:40.278Z,75.62
2022-08-24T07:04:40.296Z,75.08
2022-08-24T07:05:40.254Z,76.54
2022-08-24T07:06:40.263Z,75.74
2022-08-24T07:07:40.276Z,76.25
2022-08-24T07:08:40.239Z,76.95
2022-08-24T07:09:40.215Z,74.30
2022-08-24T07:10:40.208Z,74.40
2022-08-24T07:11:40.184Z,74.30
2022-08-24T07:12:40.194Z,74.07
2022-08-24T07:13:40.165Z,74.84
2022-08-24T07:14:40.150Z,74.23
2022-08-24T07:15:40.235Z,73.19
2022-08-24T07:16:40.127Z,71.36
2022-08-24T07:17:40.150Z,72.56
2022-08-24T07:18:41.232Z,72.83
2022-08-24T07:19:40.186Z,71.53
2022-08-24T07:20:40.082Z,71.12
2022-08-24T07:21:40.081Z,70.62
2022-08-24T07:22:40.061Z,70.59
2022-08-24T07:23:41.963Z,70.86
2022-08-24T07:24:40.061Z,71.03
2022-08-24T07:25:41.381Z,71.22
2022-08-24T07:26:40.041Z,70.99
2022-08-24T07:27:40.006Z,71.15
2022-08-24T07:28:40.016Z,69.32
2022-08-24T07:29:59.964Z,68.53
2022-08-24T07:30:40.971Z,67.93
2022-08-24T07:31:40.070Z,68.30
2022-08-24T07:32:39.948Z,66.93
2022-08-24T07:33:39.940Z,68.73
2022-08-24T07:34:39.948Z,68.70
2022-08-24T07:35:39.940Z,67.77
2022-08-24T07:36:44.147Z,67.63
2022-08-24T07:37:41.756Z,65.81
2022-08-24T07:38:39.884Z,65.88
2022-08-24T07:39:39.885Z,66.87
2022-08-24T07:41:05.113Z,64.25
2022-08-24T07:41:56.803Z,64.06
2022-08-24T07:42:40.853Z,64.55
2022-08-24T07:43:42.968Z,64.62
2022-08-24T07:44:39.812Z,63.82
2022-08-24T07:45:39.801Z,64.19
2022-08-24T07:46:39.880Z,62.27
2022-08-24T07:47:46.122Z,62.70
2022-08-24T07:48:40.769Z,61.94
2022-08-24T07:49:39.818Z,62.26
2022-08-24T07:50:39.748Z,63.53
2022-08-24T07:51:40.025Z,63.92
2022-08-24T07:52:40.744Z,63.33
2022-08-24T07:53:53.119Z,63.49
2022-08-24T07:54:40.703Z,62.60
2022-08-24T07:55:45.952Z,62.67
2022-08-24T07:56:40.680Z,62.57
2022-08-24T07:57:39.693Z,61.58
2022-08-24T07:58:39.660Z,62.64
2022-08-24T07:59:39.647Z,61.45
2022-08-24T08:00:39.657Z,61.99
2022-08-24T08:01:39.750Z,62.02
2022-08-24T08:02:39.651Z,60.93
2022-08-24T08:03:39.650Z,60.66
2022-08-24T08:04:39.617Z,61.08
2022-08-24T08:05:39.582Z,61.55
2022-08-24T08:06:39.571Z,61.79
2022-08-24T08:07:39.559Z,62.05
2022-08-24T08:08:39.550Z,60.20
2022-08-24T08:09:39.564Z,59.28
2022-08-24T08:10:39.546Z,58.65
2022-08-24T08:11:39.514Z,60.41
2022-08-24T08:12:39.528Z,60.78
2022-08-24T08:14:39.483Z,59.22
2022-08-24T08:15:39.515Z,58.23
2022-08-24T08:16:39.465Z,58.33
2022-08-24T08:17:39.449Z,58.92
2022-08-24T08:18:39.442Z,57.74
2022-08-24T08:19:39.425Z,57.84
2022-08-24T08:20:39.436Z,58.30
2022-08-24T08:21:39.404Z,57.18
2022-08-24T08:22:39.394Z,57.68
2022-08-24T08:23:39.402Z,57.29
2022-08-24T08:24:39.424Z,57.39
2022-08-24T08:25:39.360Z,56.99
2022-08-24T08:26:39.351Z,56.59
2022-08-24T08:27:39.370Z,57.16
2022-08-24T08:28:39.563Z,55.08
2022-08-24T08:29:39.318Z,57.16
2022-08-24T08:30:39.357Z,56.14
2022-08-24T08:31:39.295Z,54.06
2022-08-24T08:32:39.284Z,56.51
2022-08-24T08:33:39.278Z,54.41
2022-08-24T08:34:39.284Z,53.79
2022-08-24T08:35:39.251Z,53.59
2022-08-24T08:36:39.242Z,52.11
2022-08-24T08:37:39.230Z,52.19
2022-08-24T08:38:39.221Z,50.98
2022-08-24T08:39:39.230Z,49.97
2022-08-24T08:40:39.198Z,50.95
2022-08-24T08:41:39.544Z,51.42
2022-08-24T08:42:39.179Z,51.52
2022-08-24T08:43:39.164Z,49.52
2022-08-24T08:44:39.155Z,48.64
2022-08-24T08:45:39.164Z,49.75
2022-08-24T08:46:40.892Z,47.78
2022-08-24T08:47:39.121Z,48.37
2022-08-24T08:48:39.134Z,48.47
2022-08-24T08:49:39.099Z,49.04
2022-08-24T08:50:39.112Z,47.46
2022-08-24T08:51:39.083Z,47.16
2022-08-24T08:52:39.072Z,48.17
2022-08-24T08:53:39.078Z,47.80
2022-08-24T08:54:39.047Z,48.47
2022-08-24T08:55:39.037Z,47.78
2022-08-24T08:56:39.026Z,48.27
2022-08-24T08:57:39.014Z,47.68
2022-08-24T08:58:39.097Z,49.52
2022-08-24T08:59:38.993Z,48.71
2022-08-24T09:00:39.066Z,47.83
2022-08-24T09:01:44.173Z,46.84
2022-08-24T09:02:39.961Z,48.30
2022-08-24T09:03:39.068Z,46.13
2022-08-24T09:04:39.057Z,46.45
2022-08-24T09:05:38.927Z,47.61
2022-08-24T09:06:38.917Z,48.10
2022-08-24T09:07:38.907Z,47.80
2022-08-24T09:08:38.918Z,46.50
2022-08-24T09:09:38.885Z,44.85
2022-08-24T09:10:38.875Z,45.47
2022-08-24T09:11:38.864Z,46.33
2022-08-24T09:12:38.854Z,47.78
2022-08-24T09:13:38.861Z,45.23
2022-08-24T09:14:38.831Z,46.01
2022-08-24T09:15:38.819Z,46.03
2022-08-24T09:16:38.872Z,47.41
2022-08-24T09:17:38.823Z,48.08
2022-08-24T09:18:38.788Z,46.90
2022-08-24T09:19:38.775Z,47.36
2022-08-24T09:20:38.787Z,45.28
2022-08-24T09:21:38.760Z,46.36
2022-08-24T09:22:38.746Z,46.66
2022-08-24T09:23:38.732Z,45.01
2022-08-24T09:24:38.746Z,46.01
2022-08-24T09:25:38.712Z,44.52
2022-08-24T09:26:38.701Z,45.97
2022-08-24T09:27:38.690Z,43.63
2022-08-24T09:28:38.703Z,44.81
2022-08-24T09:29:38.688Z,44.91
2022-08-24T09:30:38.695Z,45.13
2022-08-24T09:31:39.660Z,44.83
2022-08-24T09:32:39.215Z,44.95
2022-08-24T09:33:38.624Z,44.98
2022-08-24T09:34:38.636Z,45.68
2022-08-24T09:35:38.604Z,46.28
2022-08-24T09:36:38.596Z,45.96
2022-08-24T09:37:41.688Z,46.43
2022-08-24T09:38:38.572Z,46.11
2022-08-24T09:39:38.592Z,46.38
2022-08-24T09:40:38.551Z,46.70
2022-08-24T09:41:38.543Z,45.42
2022-08-24T09:42:38.531Z,44.81
2022-08-24T09:43:38.542Z,45.10
2022-08-24T09:44:38.509Z,46.06
2022-08-24T09:45:38.546Z,46.14
2022-08-24T09:46:38.487Z,43.88
2022-08-24T09:47:38.474Z,44.18
2022-08-24T09:48:38.491Z,44.18
2022-08-24T09:49:38.454Z,45.14
2022-08-24T09:50:38.445Z,44.73
2022-08-24T09:51:38.432Z,44.53
2022-08-24T09:52:38.447Z,42.98
2022-08-24T09:53:38.410Z,44.73
2022-08-24T09:54:38.406Z,43.45
2022-08-24T09:55:38.411Z,42.86
2022-08-24T09:56:38.384Z,43.47
2022-08-24T09:57:59.492Z,44.27
2022-08-24T09:58:39.379Z,44.67
2022-08-24T09:59:38.369Z,44.65
2022-08-24T10:00:38.367Z,44.55
2022-08-24T10:01:38.379Z,44.62
2022-08-24T10:02:38.376Z,44.51
2022-08-24T10:03:38.836Z,44.51
2022-08-24T10:04:38.449Z,44.41
2022-08-24T10:05:38.493Z,44.21
2022-08-24T10:06:38.305Z,44.29
2022-08-24T10:07:38.261Z,42.91
2022-08-24T10:08:38.252Z,44.19
2022-08-24T10:09:38.265Z,42.96
2022-08-24T10:10:38.232Z,43.94
2022-08-24T10:11:38.239Z,43.33
2022-08-24T10:12:38.211Z,42.35
2022-08-24T10:13:38.299Z,44.29
2022-08-24T10:14:38.212Z,42.60
2022-08-24T10:15:38.178Z,42.90
2022-08-24T10:16:38.247Z,42.21
2022-08-24T10:17:38.156Z,41.74
2022-08-24T10:18:38.172Z,41.05
2022-08-24T10:19:38.135Z,42.82
2022-08-24T10:20:38.262Z,42.90
2022-08-24T10:21:38.114Z,40.84
2022-08-24T10:22:38.124Z,41.52
2022-08-24T10:23:38.101Z,41.35
2022-08-24T10:24:38.083Z,41.55
2022-08-24T10:25:38.071Z,42.37
2022-08-24T10:26:38.082Z,42.94
2022-08-24T10:27:38.052Z,44.58
2022-08-24T10:28:38.063Z,44.56
2022-08-24T10:29:38.028Z,42.90
2022-08-24T10:30:38.030Z,42.11
2022-08-24T10:31:38.066Z,41.80
2022-08-24T10:32:38.031Z,41.52
2022-08-24T10:33:37.994Z,41.92
2022-08-24T10:34:37.978Z,41.42
2022-08-24T10:35:37.965Z,40.48
2022-08-24T10:36:37.958Z,42.25
2022-08-24T10:37:42.392Z,41.66
2022-08-24T10:38:40.864Z,41.76
2022-08-24T10:39:37.925Z,40.00
2022-08-24T10:40:37.988Z,41.39
2022-08-24T10:41:39.366Z,41.39
2022-08-24T10:42:37.915Z,42.00
2022-08-24T10:43:37.883Z,42.32
2022-08-24T10:44:37.871Z,42.88
2022-08-24T10:45:37.894Z,41.98
2022-08-24T10:46:37.851Z,42.25
2022-08-24T10:47:37.859Z,42.33
2022-08-24T10:48:37.831Z,42.25
2022-08-24T10:49:37.838Z,42.94
2022-08-24T10:50:37.810Z,43.02
2022-08-24T10:51:37.801Z,42.91
2022-08-24T10:52:37.787Z,42.31
2022-08-24T10:53:37.777Z,41.82
2022-08-24T10:54:38.070Z,41.70
2022-08-24T10:55:37.754Z,40.72
2022-08-24T10:56:37.748Z,39.90
2022-08-24T10:57:37.756Z,41.68
2022-08-24T10:58:37.751Z,41.14
2022-08-24T10:59:37.735Z,40.55
2022-08-24T11:00:37.704Z,42.29
2022-08-24T11:01:37.774Z,42.98
2022-08-24T11:02:37.772Z,40.01
2022-08-24T11:03:37.690Z,41.45
2022-08-24T11:04:37.661Z,40.45
2022-08-24T11:05:37.670Z,40.74
2022-08-24T11:06:37.639Z,39.78
2022-08-24T11:07:37.643Z,39.88
2022-08-24T11:08:37.617Z,40.66
2022-08-24T11:09:37.751Z,39.61
2022-08-24T11:10:37.596Z,39.72
2022-08-24T11:11:40.549Z,39.82
2022-08-24T11:12:37.595Z,40.78
2022-08-24T11:13:37.564Z,39.78
2022-08-24T11:14:37.577Z,39.49
2022-08-24T11:15:37.542Z,39.66
2022-08-24T11:16:37.617Z,39.56
2022-08-24T11:17:37.545Z,39.74
2022-08-24T11:18:37.513Z,38.18
2022-08-24T11:19:37.612Z,37.61
2022-08-24T11:20:37.491Z,37.92
2022-08-24T11:21:37.481Z,38.33
2022-08-24T11:22:37.489Z,40.51
2022-08-24T11:23:37.478Z,39.74
2022-08-24T11:24:37.450Z,40.33
2022-08-24T11:25:37.437Z,41.49
2022-08-24T11:26:37.427Z,40.90
2022-08-24T11:27:37.414Z,40.41
2022-08-24T11:28:37.430Z,40.43
2022-08-24T11:29:37.394Z,41.02
2022-08-24T11:30:37.385Z,39.82
2022-08-24T11:31:37.411Z,40.68
2022-08-24T11:32:37.366Z,40.95
2022-08-24T11:33:37.352Z,40.35
2022-08-24T11:34:37.368Z,40.03
2022-08-24T11:35:37.399Z,40.06
2022-08-24T11:36:37.325Z,39.37
2022-08-24T11:37:37.315Z,38.51
2022-08-24T11:38:37.302Z,39.31
2022-08-24T11:39:38.311Z,39.53
2022-08-24T11:40:37.291Z,39.14
2022-08-24T11:41:37.269Z,38.62
2022-08-24T11:42:37.260Z,38.43
2022-08-24T11:43:37.270Z,38.04
2022-08-24T11:44:37.268Z,39.09
2022-08-24T11:45:37.235Z,40.84
2022-08-24T11:46:37.321Z,40.25
2022-08-24T11:47:37.207Z,39.74
2022-08-24T11:48:37.449Z,39.53
2022-08-24T11:49:37.205Z,39.92
2022-08-24T11:50:37.171Z,39.51
2022-08-24T11:51:37.164Z,38.24
2022-08-24T11:52:37.157Z,38.63
2022-08-24T11:54:37.146Z,39.02
2022-08-24T11:55:46.639Z,39.29
2022-08-24T11:56:38.111Z,39.12
2022-08-24T11:57:37.099Z,39.22
2022-08-24T11:58:37.107Z,39.70
2022-08-24T11:59:37.084Z,39.41
2022-08-24T12:00:37.068Z,39.22
2022-08-24T12:01:42.770Z,39.61
2022-08-24T12:02:38.187Z,40.19
2022-08-24T12:03:37.036Z,40.00
2022-08-24T12:04:37.051Z,40.00
2022-08-24T12:05:37.022Z,39.33
2022-08-24T12:06:37.008Z,39.62
2022-08-24T12:07:36.992Z,39.62
2022-08-24T12:08:36.980Z,39.62
2022-08-24T12:09:36.996Z,39.33
2022-08-24T12:10:36.974Z,39.82
2022-08-24T12:11:36.951Z,37.96
2022-08-24T12:12:36.962Z,38.08
2022-08-24T12:13:36.928Z,39.66
2022-08-24T12:14:36.917Z,40.55
2022-08-24T12:15:37.024Z,39.37
2022-08-24T12:16:36.972Z,39.25
2022-08-24T12:17:36.910Z,39.27
2022-08-24T12:18:36.897Z,39.47
2022-08-24T12:19:36.864Z,39.37
2022-08-24T12:20:36.882Z,40.45
2022-08-24T12:21:36.845Z,40.35
2022-08-24T12:22:36.836Z,39.07
2022-08-24T12:23:36.823Z,39.37
2022-08-24T12:24:36.812Z,40.74
2022-08-24T12:25:36.801Z,39.56
2022-08-24T12:26:36.809Z,39.66
2022-08-24T12:27:36.780Z,40.64
2022-08-24T12:28:36.781Z,39.86
2022-08-24T12:29:36.759Z,40.56
2022-08-24T12:30:36.749Z,39.78
2022-08-24T12:31:36.834Z,40.45
2022-08-24T12:32:36.727Z,39.29
2022-08-24T12:33:37.736Z,39.17
2022-08-24T12:34:36.706Z,40.37
2022-08-24T12:35:36.695Z,40.74
2022-08-24T12:36:36.705Z,40.55
2022-08-24T12:37:36.675Z,40.35
2022-08-24T12:38:36.684Z,39.37
2022-08-24T12:39:36.654Z,39.49
2022-08-24T12:40:36.663Z,40.68
2022-08-24T12:41:36.631Z,39.70
2022-08-24T12:42:36.620Z,39.41
2022-08-24T12:43:36.611Z,40.88
2022-08-24T12:44:36.680Z,41.76
2022-08-24T12:45:36.616Z,40.80
2022-08-24T12:46:36.629Z,41.21
2022-08-24T12:47:36.568Z,41.90
2022-08-24T12:48:36.576Z,41.02
2022-08-24T12:49:36.549Z,42.90
2022-08-24T12:50:36.537Z,39.47
2022-08-24T12:51:36.529Z,40.16
2022-08-24T12:52:36.516Z,40.55
2022-08-24T12:53:36.526Z,39.66
2022-08-24T12:54:36.514Z,39.66